Time;durP1;ratioP1;P1;durP2;ratioP2;P2;SDS_P1;SDS_P2;PMS_P1;PMS_P2;Temp;Humidity;BMP_temperature;BMP_pressure;BME280_temperature;BME280_humidity;BME280_pressure;Samples;Min_cycle;Max_cycle;Signal;HPM_P1;HPM_P2
2022/11/20 00:00:40;;;;;;;4.30;3.30;;;5.10;99.90;;;;;;5093376;28;20470;-47
2022/11/20 00:03:07;;;;;;;3.13;2.80;;;5.20;99.90;;;;;;5093260;28;20439;-47
2022/11/20 00:05:35;;;;;;;3.80;3.30;;;5.20;99.90;;;;;;5093371;28;20445;-47
2022/11/20 00:08:03;;;;;;;3.73;3.27;;;5.20;99.90;;;;;;5093192;28;20547;-47
2022/11/20 00:10:30;;;;;;;3.80;3.50;;;4.90;99.90;;;;;;5093193;28;20530;-49
2022/11/20 00:12:58;;;;;;;4.37;2.70;;;4.90;99.90;;;;;;5093002;28;20444;-48
2022/11/20 00:15:25;;;;;;;3.40;2.77;;;5.00;99.90;;;;;;5093093;28;20449;-48
2022/11/20 00:17:52;;;;;;;5.13;3.80;;;5.10;99.90;;;;;;5093414;28;20490;-48
2022/11/20 00:20:19;;;;;;;3.03;2.73;;;5.20;99.90;;;;;;5093004;28;21045;-48
2022/11/20 00:22:47;;;;;;;3.60;3.20;;;5.30;99.90;;;;;;5093224;28;20445;-48
2022/11/20 00:25:14;;;;;;;3.47;2.30;;;5.30;99.90;;;;;;5092981;28;20442;-48
2022/11/20 00:27:41;;;;;;;3.00;2.70;;;5.30;99.90;;;;;;5093415;28;20478;-50
2022/11/20 00:30:08;;;;;;;3.60;3.30;;;5.00;99.90;;;;;;5092447;28;21027;-48
2022/11/20 00:32:35;;;;;;;5.23;4.00;;;4.70;99.90;;;;;;5092803;28;20529;-48
2022/11/20 00:35:02;;;;;;;4.10;3.70;;;4.80;99.90;;;;;;5092864;28;20516;-48
2022/11/20 00:37:29;;;;;;;3.93;3.07;;;4.70;99.90;;;;;;5092907;28;20970;-48
2022/11/20 00:39:57;;;;;;;5.30;2.40;;;4.70;99.90;;;;;;5092526;28;20476;-48
2022/11/20 00:42:24;;;;;;;2.67;2.20;;;4.60;99.90;;;;;;5092892;28;20447;-49
2022/11/20 00:44:51;;;;;;;2.43;2.23;;;4.60;99.90;;;;;;5092549;28;20808;-48
2022/11/20 00:47:18;;;;;;;3.57;2.80;;;4.80;99.90;;;;;;5091821;28;20457;-51
2022/11/20 00:49:45;;;;;;;2.93;2.60;;;4.90;99.90;;;;;;5092643;28;20524;-48
2022/11/20 00:52:11;;;;;;;3.70;2.50;;;4.80;99.90;;;;;;5092397;28;20445;-49
2022/11/20 00:54:38;;;;;;;2.40;2.20;;;5.00;99.90;;;;;;5091910;28;20538;-50
2022/11/20 00:57:06;;;;;;;3.97;3.57;;;5.00;99.90;;;;;;5092642;28;20462;-49
2022/11/20 00:59:33;;;;;;;4.87;4.37;;;5.00;99.90;;;;;;5092705;28;20475;-49
2022/11/20 01:02:00;;;;;;;5.97;5.37;;;4.90;99.90;;;;;;5092247;28;20451;-49
2022/11/20 01:04:27;;;;;;;7.93;4.63;;;4.90;99.90;;;;;;5092142;28;20540;-49
2022/11/20 01:06:54;;;;;;;7.07;4.97;;;4.80;99.90;;;;;;5091842;28;20463;-48
2022/11/20 01:09:20;;;;;;;4.10;3.63;;;4.70;99.90;;;;;;5092555;28;20828;-48
2022/11/20 01:11:47;;;;;;;4.00;3.20;;;4.80;99.90;;;;;;5092330;28;20449;-49
2022/11/20 01:14:17;;;;;;;3.37;2.80;;;4.80;99.90;;;;;;5092070;28;20529;-49
2022/11/20 01:16:46;;;;;;;3.03;2.60;;;4.90;99.90;;;;;;5092161;28;20898;-49
2022/11/20 01:19:15;;;;;;;2.30;2.07;;;4.90;99.90;;;;;;5091989;28;20444;-49
2022/11/20 01:21:44;;;;;;;4.57;3.30;;;4.90;99.90;;;;;;5091650;28;20952;-48
2022/11/20 01:24:14;;;;;;;2.73;2.50;;;4.70;99.90;;;;;;5091920;28;20528;-49
2022/11/20 01:26:42;;;;;;;3.80;3.10;;;4.40;99.90;;;;;;5091685;28;20500;-48
2022/11/20 01:29:13;;;;;;;3.63;3.13;;;4.60;99.90;;;;;;5091612;28;20535;-49
2022/11/20 01:31:42;;;;;;;3.17;2.87;;;4.70;99.90;;;;;;5091744;28;20833;-48
2022/11/20 01:34:12;;;;;;;4.37;3.83;;;4.70;99.90;;;;;;5092000;28;20438;-51
2022/11/20 01:36:40;;;;;;;3.87;3.27;;;4.60;99.90;;;;;;5091784;28;20541;-48
2022/11/20 01:39:10;;;;;;;6.57;3.37;;;4.70;99.90;;;;;;5091826;28;20905;-48
2022/11/20 01:44:43;;;;;;;2.63;2.40;;;4.80;99.90;;;;;;5091413;28;20449;-48
2022/11/20 01:47:16;;;;;;;3.40;2.93;;;4.80;99.90;;;;;;5091447;28;20538;-49
2022/11/20 01:49:49;;;;;;;4.43;3.27;;;4.80;99.90;;;;;;5091680;28;20441;-48
2022/11/20 01:52:20;;;;;;;4.07;3.50;;;4.70;99.90;;;;;;5091915;28;20535;-48
2022/11/20 01:54:53;;;;;;;3.60;3.30;;;4.70;99.90;;;;;;5091414;28;20533;-48
2022/11/20 01:57:22;;;;;;;3.77;2.50;;;4.70;99.90;;;;;;5091381;28;20469;-51
2022/11/20 01:59:55;;;;;;;3.13;2.67;;;4.60;99.90;;;;;;5091482;28;20610;-50
2022/11/20 02:02:24;;;;;;;10.20;8.23;;;4.60;99.90;;;;;;5091444;28;20443;-48
2022/11/20 02:04:54;;;;;;;6.20;4.93;;;4.80;99.90;;;;;;5091141;28;20463;-48
2022/11/20 02:07:21;;;;;;;5.40;4.90;;;4.80;99.90;;;;;;5091569;28;20562;-50
2022/11/20 02:09:48;;;;;;;7.67;5.23;;;4.90;99.90;;;;;;5091559;28;20442;-48
2022/11/20 02:14:57;;;;;;;5.10;4.60;;;4.90;99.90;;;;;;5090674;28;20963;-48
2022/11/20 02:17:26;;;;;;;5.13;4.10;;;4.80;99.90;;;;;;5091116;28;20547;-48
2022/11/20 02:19:53;;;;;;;3.63;3.30;;;4.90;99.90;;;;;;5091467;28;20574;-48
2022/11/20 02:22:27;;;;;;;5.30;4.80;;;4.90;99.90;;;;;;5091609;28;20434;-48
2022/11/20 02:24:55;;;;;;;4.07;3.67;;;4.90;99.90;;;;;;5090926;28;20754;-48
2022/11/20 02:27:22;;;;;;;4.10;3.73;;;5.00;99.90;;;;;;5092711;28;20570;-48
2022/11/20 02:29:52;;;;;;;6.50;4.50;;;5.00;99.90;;;;;;5090770;28;20452;-48
2022/11/20 02:32:20;;;;;;;5.00;4.50;;;5.00;99.90;;;;;;5091180;28;20451;-49
2022/11/20 02:34:47;;;;;;;4.73;3.90;;;5.00;99.90;;;;;;5091056;28;20545;-48
2022/11/20 02:37:15;;;;;;;4.97;3.40;;;5.10;99.90;;;;;;5091029;28;20463;-48
2022/11/20 02:39:44;;;;;;;4.90;4.13;;;5.00;99.90;;;;;;5090939;28;20932;-48
2022/11/20 02:42:12;;;;;;;5.40;4.70;;;5.00;99.90;;;;;;5091602;28;20531;-48
2022/11/20 02:44:39;;;;;;;4.80;3.80;;;5.00;99.90;;;;;;5090755;28;20446;-48
2022/11/20 02:47:06;;;;;;;4.00;3.63;;;5.10;99.90;;;;;;5090989;28;20460;-49
2022/11/20 02:49:33;;;;;;;4.67;4.20;;;5.10;99.90;;;;;;5091177;28;20461;-48
2022/11/20 02:52:00;;;;;;;5.30;4.23;;;4.80;99.90;;;;;;5090871;28;20464;-49
2022/11/20 02:54:27;;;;;;;4.87;4.37;;;4.60;99.90;;;;;;5090764;28;20443;-48
2022/11/20 02:56:54;;;;;;;4.60;4.20;;;4.80;99.90;;;;;;5090874;28;20505;-48
2022/11/20 02:59:22;;;;;;;4.67;4.10;;;5.00;99.90;;;;;;5090750;28;20522;-48
2022/11/20 03:01:49;;;;;;;5.30;4.73;;;4.80;99.90;;;;;;5090820;28;21047;-48
2022/11/20 03:04:15;;;;;;;5.80;4.33;;;4.70;99.90;;;;;;5090832;28;20526;-48
2022/11/20 03:06:42;;;;;;;6.67;4.27;;;4.70;99.90;;;;;;5090683;28;20463;-48
2022/11/20 03:09:09;;;;;;;5.53;4.60;;;4.80;99.90;;;;;;5090616;28;20450;-49
2022/11/20 03:11:36;;;;;;;4.90;3.60;;;4.90;99.90;;;;;;5093463;28;20442;-48
2022/11/20 03:14:04;;;;;;;4.43;3.40;;;4.90;99.90;;;;;;5094652;28;20445;-50
2022/11/20 03:16:33;;;;;;;3.93;2.97;;;4.80;99.90;;;;;;5094615;28;20466;-48
2022/11/20 03:19:00;;;;;;;5.40;3.87;;;4.90;99.90;;;;;;5094456;28;20439;-49
2022/11/20 03:21:27;;;;;;;3.80;3.40;;;5.00;99.90;;;;;;5094307;28;20562;-48
2022/11/20 03:23:55;;;;;;;4.30;3.90;;;5.00;99.90;;;;;;5093807;28;20525;-49
2022/11/20 03:26:25;;;;;;;4.17;3.77;;;5.00;99.90;;;;;;5094149;28;21057;-50
2022/11/20 03:28:54;;;;;;;4.43;4.03;;;5.10;99.90;;;;;;5093920;28;20496;-48
2022/11/20 03:31:23;;;;;;;4.73;4.17;;;5.10;99.90;;;;;;5093735;28;20813;-49
2022/11/20 03:33:51;;;;;;;4.70;4.30;;;5.10;99.90;;;;;;5093846;28;20435;-48
2022/11/20 03:36:20;;;;;;;12.40;4.10;;;5.20;99.90;;;;;;5094125;28;20881;-48
2022/11/20 03:38:47;;;;;;;4.00;3.60;;;5.20;99.90;;;;;;5093697;28;20526;-49
2022/11/20 03:41:15;;;;;;;4.17;3.30;;;5.20;99.90;;;;;;5094104;28;20471;-48
2022/11/20 03:43:42;;;;;;;3.27;2.97;;;5.00;99.90;;;;;;5093700;28;20531;-49
2022/11/20 03:46:09;;;;;;;3.30;3.00;;;4.90;99.90;;;;;;5093894;28;20537;-49
2022/11/20 03:48:36;;;;;;;3.13;2.80;;;5.00;99.90;;;;;;5093857;28;20442;-48
2022/11/20 03:51:14;;;;;;;2.60;2.40;;;5.10;99.90;;;;;;5093957;28;20454;-48
2022/11/20 03:53:42;;;;;;;2.50;2.30;;;5.00;99.90;;;;;;5093576;28;20982;-48
2022/11/20 03:56:10;;;;;;;2.43;2.07;;;5.00;99.90;;;;;;5093821;28;20522;-45
2022/11/20 03:58:39;;;;;;;3.67;3.13;;;5.00;99.90;;;;;;5093493;28;20902;-48
2022/11/20 04:01:11;;;;;;;3.40;2.23;;;5.10;99.90;;;;;;5093600;28;20489;-50
2022/11/20 04:03:39;;;;;;;7.73;2.53;;;5.00;99.90;;;;;;5093254;28;20478;-51
2022/11/20 04:06:09;;;;;;;4.17;3.00;;;5.20;99.90;;;;;;5093382;28;20523;-51
2022/11/20 04:08:37;;;;;;;3.30;3.00;;;5.10;99.90;;;;;;5093451;28;20944;-48
2022/11/20 04:11:11;;;;;;;2.80;2.60;;;5.20;99.90;;;;;;5093057;28;20535;-48
2022/11/20 04:13:38;;;;;;;2.27;2.07;;;5.10;99.90;;;;;;5092881;28;20526;-48
2022/11/20 04:16:06;;;;;;;3.30;2.77;;;5.20;99.90;;;;;;5092636;28;20530;-49
2022/11/20 04:18:33;;;;;;;2.10;1.90;;;5.30;99.90;;;;;;5093647;28;20535;-50
2022/11/20 04:21:00;;;;;;;2.87;2.37;;;5.20;99.90;;;;;;5093356;28;20550;-48
2022/11/20 04:23:28;;;;;;;4.83;3.47;;;5.20;99.90;;;;;;5091650;28;20440;-51
2022/11/20 04:26:02;;;;;;;6.70;4.40;;;5.20;99.90;;;;;;5092922;28;20527;-48
2022/11/20 04:28:29;;;;;;;6.83;4.67;;;4.80;99.90;;;;;;5092630;28;20941;-48
2022/11/20 04:31:03;;;;;;;3.90;3.20;;;4.40;99.90;;;;;;5092974;28;20442;-50
2022/11/20 04:33:30;;;;;;;5.03;3.50;;;4.40;99.90;;;;;;5092770;28;20535;-47
2022/11/20 04:36:02;;;;;;;4.70;3.70;;;4.50;99.90;;;;;;5092995;28;20535;-48
2022/11/20 04:38:28;;;;;;;4.47;3.67;;;4.70;99.90;;;;;;5092952;28;20443;-48
2022/11/20 04:40:59;;;;;;;4.53;4.10;;;4.80;99.90;;;;;;5092688;28;20525;-48
2022/11/20 04:43:26;;;;;;;5.07;3.60;;;4.90;99.90;;;;;;5092824;28;20461;-48
2022/11/20 04:45:53;;;;;;;3.80;3.10;;;5.00;99.90;;;;;;5092887;28;20447;-50
2022/11/20 04:48:21;;;;;;;4.13;3.63;;;4.90;99.90;;;;;;5092669;28;20855;-48
2022/11/20 04:50:48;;;;;;;2.90;2.60;;;4.70;99.90;;;;;;5092721;28;20945;-48
2022/11/20 04:53:14;;;;;;;5.60;3.13;;;4.60;99.90;;;;;;5092529;28;20448;-48
2022/11/20 04:55:41;;;;;;;4.20;3.13;;;4.50;99.90;;;;;;5092622;28;20478;-48
2022/11/20 04:58:09;;;;;;;2.50;2.30;;;4.60;99.90;;;;;;5092562;28;20553;-49
2022/11/20 05:00:36;;;;;;;2.70;2.40;;;4.50;99.90;;;;;;5092146;28;20473;-48
2022/11/20 05:03:03;;;;;;;2.30;2.10;;;4.60;99.90;;;;;;5092145;28;20447;-48
2022/11/20 05:05:30;;;;;;;3.07;2.50;;;4.70;99.90;;;;;;5092461;28;20453;-48
2022/11/20 05:07:58;;;;;;;1.97;1.80;;;4.80;99.90;;;;;;5092213;28;20466;-48
2022/11/20 05:10:25;;;;;;;2.47;2.20;;;4.80;99.90;;;;;;5092522;28;20449;-49
2022/11/20 05:12:51;;;;;;;2.97;2.60;;;4.70;99.90;;;;;;5092051;28;20546;-50
2022/11/20 05:15:20;;;;;;;3.40;2.50;;;4.50;99.90;;;;;;5091965;28;20439;-48
2022/11/20 05:17:48;;;;;;;2.30;1.53;;;4.60;99.90;;;;;;5092414;28;20457;-50
2022/11/20 05:20:15;;;;;;;1.53;1.23;;;4.40;99.90;;;;;;5092419;28;20441;-50
2022/11/20 05:22:42;;;;;;;2.27;1.90;;;4.40;99.90;;;;;;5092339;28;20525;-48
2022/11/20 05:25:10;;;;;;;2.67;2.20;;;4.40;99.90;;;;;;5091758;28;20780;-48
2022/11/20 05:27:36;;;;;;;2.80;2.50;;;4.60;99.90;;;;;;5091919;28;20470;-48
2022/11/20 05:30:04;;;;;;;2.20;1.93;;;4.70;99.90;;;;;;5091368;28;20529;-48
2022/11/20 05:32:32;;;;;;;3.30;2.77;;;4.70;99.90;;;;;;5092024;28;20632;-48
2022/11/20 05:34:59;;;;;;;2.50;2.20;;;4.40;99.90;;;;;;5091404;28;20475;-48
2022/11/20 05:37:26;;;;;;;2.43;2.23;;;4.60;99.90;;;;;;5091693;28;20465;-48
2022/11/20 05:39:52;;;;;;;2.50;2.30;;;4.70;99.90;;;;;;5091657;28;20442;-49
2022/11/20 05:42:31;;;;;;;3.90;2.80;;;4.90;99.90;;;;;;5091853;28;20474;-49
2022/11/20 05:44:59;;;;;;;2.77;2.50;;;4.90;99.90;;;;;;5091666;28;20441;-48
2022/11/20 05:47:25;;;;;;;4.20;3.60;;;4.90;99.90;;;;;;5091372;28;20550;-48
2022/11/20 05:49:54;;;;;;;4.77;3.60;;;4.60;99.90;;;;;;5091697;28;20588;-48
2022/11/20 05:52:20;;;;;;;4.77;3.53;;;4.50;99.90;;;;;;5091549;28;20532;-48
2022/11/20 05:54:47;;;;;;;4.07;3.63;;;4.50;99.90;;;;;;5091459;28;20464;-48
2022/11/20 05:57:14;;;;;;;5.97;3.90;;;4.60;99.90;;;;;;5091508;28;20557;-49
2022/11/20 05:59:41;;;;;;;5.03;4.53;;;4.60;99.90;;;;;;5091535;28;20812;-48
2022/11/20 06:02:08;;;;;;;6.67;5.97;;;4.80;99.90;;;;;;5091515;28;20478;-48
2022/11/20 06:04:35;;;;;;;10.90;7.00;;;4.90;99.90;;;;;;5092003;28;20436;-48
2022/11/20 06:07:03;;;;;;;4.97;4.13;;;4.90;99.90;;;;;;5091257;28;20467;-50
2022/11/20 06:09:30;;;;;;;5.47;4.87;;;4.80;99.90;;;;;;5091194;28;20536;-51
2022/11/20 06:11:57;;;;;;;7.30;5.13;;;4.90;99.90;;;;;;5091680;28;20439;-49
2022/11/20 06:14:24;;;;;;;6.43;5.50;;;5.00;99.90;;;;;;5091293;28;20446;-48
2022/11/20 06:16:50;;;;;;;5.43;4.90;;;5.10;99.90;;;;;;5091485;28;20466;-50
2022/11/20 06:19:17;;;;;;;7.13;5.50;;;5.10;99.90;;;;;;5091480;28;20453;-49
2022/11/20 06:21:44;;;;;;;6.40;4.90;;;5.10;99.90;;;;;;5090662;28;20479;-49
2022/11/20 06:24:13;;;;;;;5.37;4.47;;;5.20;99.90;;;;;;5091234;28;20562;-50
2022/11/20 06:26:39;;;;;;;7.23;5.33;;;5.20;99.90;;;;;;5091229;28;20490;-48
2022/11/20 06:29:06;;;;;;;5.20;4.80;;;5.20;99.90;;;;;;5090774;28;20859;-48
2022/11/20 06:31:34;;;;;;;5.50;5.00;;;5.10;99.90;;;;;;5091025;28;20446;-49
2022/11/20 06:34:02;;;;;;;7.60;4.73;;;5.00;99.90;;;;;;5091071;28;20499;-48
2022/11/20 06:36:28;;;;;;;6.13;5.53;;;4.90;99.90;;;;;;5091334;28;20910;-49
2022/11/20 06:38:55;;;;;;;5.57;5.07;;;4.90;99.90;;;;;;5091605;28;20438;-48
2022/11/20 06:41:23;;;;;;;5.10;4.70;;;5.00;99.90;;;;;;5090811;28;20842;-50
2022/11/20 06:43:51;;;;;;;5.27;4.60;;;5.00;99.90;;;;;;5090617;28;20445;-50
2022/11/20 06:46:20;;;;;;;5.90;5.17;;;5.10;99.90;;;;;;5093332;28;20445;-49
2022/11/20 06:48:47;;;;;;;6.97;5.20;;;5.10;99.90;;;;;;5095003;28;20532;-48
2022/11/20 06:51:14;;;;;;;8.60;5.60;;;5.10;99.90;;;;;;5095197;28;20887;-48
2022/11/20 06:53:41;;;;;;;6.40;5.70;;;5.10;99.90;;;;;;5094864;28;20447;-49
2022/11/20 06:56:09;;;;;;;8.13;6.53;;;5.10;99.90;;;;;;5094590;28;20439;-48
2022/11/20 06:58:37;;;;;;;7.70;5.10;;;5.10;99.90;;;;;;5094794;28;20478;-48
2022/11/20 07:01:07;;;;;;;10.30;7.60;;;5.10;99.90;;;;;;5094720;28;20446;-48
2022/11/20 07:03:34;;;;;;;16.73;11.50;;;5.10;99.90;;;;;;5094574;28;20948;-48
2022/11/20 07:06:02;;;;;;;16.30;11.10;;;5.10;99.90;;;;;;5095071;28;20869;-48
2022/11/20 07:08:29;;;;;;;15.87;11.20;;;5.20;99.90;;;;;;5094720;28;20968;-48
2022/11/20 07:10:58;;;;;;;14.73;11.07;;;5.20;99.90;;;;;;5094413;28;20533;-49
2022/11/20 07:13:25;;;;;;;9.73;7.17;;;5.20;99.90;;;;;;5094409;28;20446;-49
2022/11/20 07:15:53;;;;;;;9.40;7.40;;;5.30;99.90;;;;;;5094815;28;20440;-51
2022/11/20 07:18:20;;;;;;;9.37;7.03;;;5.30;99.90;;;;;;5094585;28;20465;-51
2022/11/20 07:20:47;;;;;;;7.30;5.43;;;5.30;99.90;;;;;;5095056;28;20444;-48
2022/11/20 07:23:14;;;;;;;5.80;4.47;;;5.20;99.90;;;;;;5094269;28;20476;-49
2022/11/20 07:25:41;;;;;;;7.83;7.03;;;5.10;99.90;;;;;;5094330;28;20468;-51
2022/11/20 07:28:08;;;;;;;9.00;6.10;;;5.10;99.90;;;;;;5093693;28;20470;-48
2022/11/20 07:30:36;;;;;;;10.13;7.27;;;5.10;99.90;;;;;;5093777;28;20994;-48
2022/11/20 07:33:04;;;;;;;7.50;6.80;;;5.20;99.90;;;;;;5093994;28;20453;-48
2022/11/20 07:35:31;;;;;;;10.87;9.40;;;5.10;99.90;;;;;;5094265;28;20522;-48
2022/11/20 07:37:57;;;;;;;15.20;12.80;;;5.20;99.90;;;;;;5093970;28;20471;-49
2022/11/20 07:40:24;;;;;;;12.33;10.73;;;5.20;99.90;;;;;;5094373;28;20537;-48
2022/11/20 07:42:53;;;;;;;14.20;10.40;;;5.20;99.90;;;;;;5094164;28;20482;-45
2022/11/20 07:45:20;;;;;;;11.90;9.40;;;5.00;99.90;;;;;;5093893;28;20449;-48
2022/11/20 07:47:47;;;;;;;9.27;8.40;;;4.90;99.90;;;;;;5093835;28;20491;-48
2022/11/20 07:50:16;;;;;;;12.10;9.60;;;4.80;99.90;;;;;;5093823;28;20659;-50
2022/11/20 07:52:43;;;;;;;12.00;9.50;;;4.70;99.90;;;;;;5094022;28;20449;-49
2022/11/20 07:55:11;;;;;;;14.63;9.10;;;4.80;99.90;;;;;;5093507;28;20521;-48
2022/11/20 07:57:38;;;;;;;11.17;8.77;;;5.00;99.90;;;;;;5093544;28;20466;-48
2022/11/20 08:00:08;;;;;;;11.90;10.27;;;5.20;99.90;;;;;;5093478;28;20461;-50
2022/11/20 08:02:37;;;;;;;11.73;9.10;;;5.20;99.90;;;;;;5093784;28;20531;-50
2022/11/20 08:05:04;;;;;;;8.40;7.57;;;5.20;99.90;;;;;;5093291;28;20465;-49
2022/11/20 08:07:38;;;;;;;7.20;6.27;;;5.20;99.90;;;;;;5093592;28;20470;-49
2022/11/20 08:10:05;;;;;;;7.17;5.87;;;5.40;99.90;;;;;;5093253;28;20997;-49
2022/11/20 08:15:17;;;;;;;8.80;8.00;;;5.20;99.90;;;;;;5092881;28;20459;-48
2022/11/20 08:17:43;;;;;;;9.67;8.67;;;5.10;99.90;;;;;;5093551;28;20463;-49
2022/11/20 08:20:11;;;;;;;7.17;6.30;;;5.10;99.90;;;;;;5092201;28;20449;-49
2022/11/20 08:22:39;;;;;;;7.07;6.40;;;5.20;99.90;;;;;;5092673;28;20986;-48
2022/11/20 08:25:07;;;;;;;6.87;6.23;;;5.20;99.90;;;;;;5093152;28;20526;-51
2022/11/20 08:27:34;;;;;;;9.43;7.33;;;5.30;99.90;;;;;;5094073;28;20832;-49
2022/11/20 08:30:00;;;;;;;6.33;5.73;;;5.30;99.90;;;;;;5092796;28;20452;-48
2022/11/20 08:32:27;;;;;;;7.07;6.30;;;5.30;99.90;;;;;;5092870;28;20438;-49
2022/11/20 08:34:54;;;;;;;9.93;6.40;;;5.20;99.90;;;;;;5093047;28;20812;-48
2022/11/20 08:37:21;;;;;;;9.00;8.10;;;5.50;99.90;;;;;;5092533;28;20468;-50
2022/11/20 08:39:49;;;;;;;9.73;8.27;;;9.30;99.90;;;;;;5093130;28;20812;-49
2022/11/20 08:42:16;;;;;;;6.30;5.70;;;10.30;99.90;;;;;;5092792;28;20470;-49
2022/11/20 08:44:43;;;;;;;5.80;4.83;;;7.60;99.90;;;;;;5092831;28;20440;-48
2022/11/20 08:47:10;;;;;;;5.93;5.43;;;6.30;99.90;;;;;;5092870;28;20452;-50
2022/11/20 08:49:37;;;;;;;6.00;5.40;;;5.70;99.90;;;;;;5091894;28;20453;-48
2022/11/20 08:52:03;;;;;;;5.77;5.27;;;5.10;99.90;;;;;;5092383;28;20434;-48
2022/11/20 08:54:30;;;;;;;5.93;5.20;;;5.00;99.90;;;;;;5092524;28;20528;-50
2022/11/20 08:56:58;;;;;;;6.67;4.13;;;5.00;99.90;;;;;;5092640;28;20553;-48
2022/11/20 08:59:25;;;;;;;4.17;3.70;;;5.20;99.90;;;;;;5092691;28;20812;-48
2022/11/20 09:01:52;;;;;;;3.97;3.50;;;5.30;99.90;;;;;;5092243;28;20481;-47
2022/11/20 09:04:19;;;;;;;3.33;2.83;;;5.20;99.90;;;;;;5091138;28;20450;-49
2022/11/20 09:06:46;;;;;;;4.27;3.77;;;5.30;99.90;;;;;;5091507;28;20470;-48
2022/11/20 09:09:12;;;;;;;8.40;6.00;;;5.40;99.90;;;;;;5091892;28;20458;-48
2022/11/20 09:11:39;;;;;;;10.63;7.80;;;5.50;99.90;;;;;;5091711;28;20537;-49
2022/11/20 09:14:07;;;;;;;13.57;9.50;;;5.50;99.90;;;;;;5092440;28;20448;-48
2022/11/20 09:16:34;;;;;;;11.17;9.50;;;5.60;99.90;;;;;;5090430;28;20562;-48
2022/11/20 09:19:01;;;;;;;11.97;10.80;;;5.60;99.90;;;;;;5091396;28;20458;-48
2022/11/20 09:21:28;;;;;;;11.73;10.30;;;5.70;99.90;;;;;;5091268;28;20952;-48
2022/11/20 09:23:55;;;;;;;11.57;10.40;;;5.70;99.90;;;;;;5091611;28;20480;-48
2022/11/20 09:26:22;;;;;;;11.37;10.20;;;5.70;99.90;;;;;;5091212;28;20844;-47
2022/11/20 09:28:49;;;;;;;12.27;11.07;;;5.70;99.90;;;;;;5087663;28;20471;-47
2022/11/20 09:31:23;;;;;;;10.40;9.40;;;5.80;99.90;;;;;;5090811;28;20443;-49
2022/11/20 09:33:50;;;;;;;8.17;7.47;;;5.80;99.90;;;;;;5091918;28;20442;-47
2022/11/20 09:36:18;;;;;;;7.40;6.70;;;5.80;99.90;;;;;;5091788;28;20449;-47
2022/11/20 09:38:45;;;;;;;7.17;6.00;;;5.70;99.90;;;;;;5091861;28;20443;-47
2022/11/20 09:41:28;;;;;;;7.00;6.40;;;5.70;99.90;;;;;;5091777;28;20440;-48
2022/11/20 09:44:04;;;;;;;9.17;8.27;;;5.70;99.90;;;;;;5091500;28;20902;-47
2022/11/20 09:46:41;;;;;;;9.17;8.27;;;5.90;99.90;;;;;;5091967;28;20455;-47
2022/11/20 09:49:24;;;;;;;8.57;7.87;;;5.90;99.90;;;;;;5091874;28;20439;-47
2022/11/20 09:51:57;;;;;;;5.37;4.80;;;5.90;99.90;;;;;;5091561;28;20535;-46
2022/11/20 09:54:30;;;;;;;5.05;4.55;;;5.70;99.90;;;;;;5090338;28;20470;-47
2022/11/20 09:57:01;;;;;;;4.43;3.87;;;5.80;99.90;;;;;;5091341;28;20224;-48
2022/11/20 09:59:36;;;;;;;4.50;4.03;;;5.80;99.90;;;;;;5091245;28;20439;-47
2022/11/20 10:02:13;;;;;;;4.20;3.10;;;5.70;99.90;;;;;;5071070;28;21037;-48
2022/11/20 10:04:45;;;;;;;4.10;3.70;;;6.10;99.90;;;;;;5080416;28;20446;-47
2022/11/20 10:07:17;;;;;;;3.83;3.50;;;6.60;99.90;;;;;;5090228;28;20468;-47
2022/11/20 10:09:52;;;;;;;3.67;2.93;;;6.40;99.90;;;;;;5091184;28;20534;-47
2022/11/20 10:12:24;;;;;;;5.17;4.10;;;6.50;99.90;;;;;;5091155;28;20523;-47
2022/11/20 10:15:04;;;;;;;8.27;6.50;;;7.90;99.90;;;;;;5091697;28;20452;-49
2022/11/20 10:17:51;;;;;;;6.63;4.77;;;7.40;99.90;;;;;;5091447;28;20914;-48
2022/11/20 10:20:28;;;;;;;3.13;2.83;;;7.80;99.90;;;;;;5093867;28;20530;-47
2022/11/20 10:23:16;;;;;;;4.37;3.27;;;7.10;99.90;;;;;;5094505;28;20854;-48
2022/11/20 10:25:52;;;;;;;5.73;4.27;;;6.70;99.90;;;;;;5095865;28;20458;-48
2022/11/20 10:28:30;;;;;;;5.47;4.00;;;6.40;99.90;;;;;;5095159;28;21009;-47
2022/11/20 10:31:01;;;;;;;4.53;4.13;;;6.20;99.90;;;;;;5095395;28;20442;-47
2022/11/20 10:33:35;;;;;;;6.67;3.83;;;6.20;99.90;;;;;;5095249;28;21176;-47
2022/11/20 10:36:14;;;;;;;3.90;3.60;;;6.20;99.90;;;;;;5095283;28;20448;-48
2022/11/20 10:38:44;;;;;;;4.17;3.27;;;6.20;99.90;;;;;;5095902;28;20476;-51
2022/11/20 10:41:26;;;;;;;3.73;3.07;;;6.20;99.90;;;;;;5095301;28;20534;-48
2022/11/20 10:44:01;;;;;;;4.60;2.47;;;6.80;99.90;;;;;;5094952;28;20498;-48
2022/11/20 10:46:37;;;;;;;3.57;3.10;;;9.40;99.90;;;;;;5095321;28;20964;-47
2022/11/20 10:49:12;;;;;;;4.07;3.77;;;8.10;99.90;;;;;;5095410;28;20461;-48
2022/11/20 10:51:47;;;;;;;3.80;3.40;;;7.80;99.90;;;;;;5095031;28;20531;-48
2022/11/20 10:54:23;;;;;;;8.63;4.73;;;7.60;99.90;;;;;;5095105;28;20435;-50
2022/11/20 10:56:52;;;;;;;6.77;4.20;;;7.60;99.90;;;;;;5095118;28;20541;-48
2022/11/20 10:59:49;;;;;;;7.63;5.03;;;7.10;99.90;;;;;;5095050;28;20955;-48
2022/11/20 11:02:21;;;;;;;7.60;4.77;;;6.60;99.90;;;;;;5089722;28;20547;-51
2022/11/20 11:04:51;;;;;;;5.30;3.50;;;6.70;99.90;;;;;;5094522;28;21051;-49
2022/11/20 11:07:23;;;;;;;4.40;3.80;;;6.70;99.90;;;;;;5094886;28;20455;-48
2022/11/20 11:09:52;;;;;;;5.47;4.40;;;6.80;99.90;;;;;;5094803;28;20555;-48
2022/11/20 11:12:20;;;;;;;4.20;3.80;;;6.80;99.90;;;;;;5094742;28;20524;-49
2022/11/20 11:14:49;;;;;;;4.77;4.37;;;6.80;99.90;;;;;;5094575;28;20449;-48
2022/11/20 11:17:26;;;;;;;2.23;2.03;;;6.80;99.90;;;;;;5094658;28;20546;-48
2022/11/20 11:20:03;;;;;;;2.47;2.27;;;6.80;99.90;;;;;;5094790;28;20820;-50
2022/11/20 11:22:32;;;;;;;3.93;3.00;;;6.80;99.90;;;;;;5094228;28;20475;-49
2022/11/20 11:24:59;;;;;;;3.73;3.10;;;6.90;99.90;;;;;;5093293;28;20531;-47
2022/11/20 11:27:26;;;;;;;2.77;2.57;;;7.00;99.90;;;;;;5094179;28;20474;-47
2022/11/20 11:30:03;;;;;;;2.97;2.70;;;7.00;99.90;;;;;;5093915;28;20451;-48
2022/11/20 11:32:30;;;;;;;2.30;2.10;;;7.00;99.90;;;;;;5093794;28;20442;-49
2022/11/20 11:35:03;;;;;;;3.27;2.47;;;7.00;99.90;;;;;;5093795;28;20809;-47
2022/11/20 11:37:35;;;;;;;2.87;2.67;;;7.00;99.90;;;;;;5093886;28;20547;-50
2022/11/20 11:40:03;;;;;;;3.00;2.77;;;6.90;99.90;;;;;;5094013;28;20448;-48
2022/11/20 11:42:30;;;;;;;2.80;2.23;;;6.90;99.90;;;;;;5094222;28;20566;-47
2022/11/20 11:45:07;;;;;;;3.23;2.80;;;7.00;99.90;;;;;;5093868;28;20447;-50
2022/11/20 11:47:37;;;;;;;177.53;51.90;;;7.00;99.90;;;;;;5093941;28;20968;-48
2022/11/20 11:50:19;;;;;;;6.37;4.43;;;12.80;99.90;;;;;;5094109;28;20454;-48
2022/11/20 11:52:53;;;;;;;3.90;3.50;;;12.50;99.90;;;;;;5093590;28;20944;-48
2022/11/20 11:55:30;;;;;;;2.60;2.37;;;9.70;99.90;;;;;;5092850;28;20539;-49
2022/11/20 11:58:07;;;;;;;3.40;2.50;;;8.60;99.90;;;;;;5094142;28;20551;-48
2022/11/20 12:00:37;;;;;;;2.37;2.07;;;8.20;99.90;;;;;;5092950;28;20826;-48
2022/11/20 12:03:14;;;;;;;2.47;2.10;;;7.90;99.90;;;;;;5093665;28;20586;-48
2022/11/20 12:05:48;;;;;;;3.13;2.83;;;7.70;99.90;;;;;;5093888;28;20527;-48
2022/11/20 12:08:22;;;;;;;3.07;2.40;;;7.60;99.90;;;;;;5093475;28;20464;-48
2022/11/20 12:10:55;;;;;;;3.40;2.60;;;7.50;99.90;;;;;;5093354;28;20982;-49
2022/11/20 12:13:35;;;;;;;2.57;1.90;;;7.60;99.90;;;;;;5093205;28;20522;-48
2022/11/20 12:16:03;;;;;;;3.53;2.87;;;7.60;99.90;;;;;;5093521;28;20546;-47
2022/11/20 12:18:31;;;;;;;3.27;2.97;;;7.70;99.90;;;;;;5093249;28;21055;-48
2022/11/20 12:21:12;;;;;;;8.73;5.70;;;7.80;99.90;;;;;;5093287;28;20928;-48
2022/11/20 12:23:50;;;;;;;7.73;4.77;;;7.90;99.90;;;;;;5092925;28;20783;-48
2022/11/20 12:26:44;;;;;;;4.77;3.70;;;7.80;99.90;;;;;;5091870;28;20475;-47
2022/11/20 12:29:19;;;;;;;3.83;3.33;;;8.00;99.90;;;;;;5084182;28;20526;-48
2022/11/20 12:31:59;;;;;;;2.57;2.20;;;8.10;99.90;;;;;;5093106;28;20439;-50
2022/11/20 12:34:42;;;;;;;2.97;2.30;;;8.10;99.90;;;;;;5077001;28;20436;-50
2022/11/20 12:37:29;;;;;;;2.60;2.23;;;8.00;99.90;;;;;;5092646;28;20542;-47
2022/11/20 12:39:59;;;;;;;3.00;2.80;;;8.10;99.90;;;;;;5092886;28;20523;-49
2022/11/20 12:45:49;;;;;;;2.60;1.50;;;8.70;99.90;;;;;;5092710;28;20431;-48
2022/11/20 12:48:31;;;;;;;1.90;1.10;;;8.80;99.90;;;;;;5091873;28;20477;-47
2022/11/20 12:51:32;;;;;;;2.00;1.67;;;9.50;99.90;;;;;;5090762;28;20436;-47
2022/11/20 12:54:34;;;;;;;2.10;1.40;;;9.80;99.90;;;;;;5092089;28;20519;-47
2022/11/20 12:57:07;;;;;;;1.80;1.27;;;10.00;99.90;;;;;;5092569;28;20491;-48
2022/11/20 12:59:49;;;;;;;2.20;1.70;;;9.60;99.90;;;;;;5092341;28;20443;-47
2022/11/20 13:02:26;;;;;;;2.53;1.60;;;10.00;99.90;;;;;;5092632;28;20440;-49
2022/11/20 13:05:06;;;;;;;2.33;1.10;;;9.50;99.90;;;;;;5091556;28;20562;-48
2022/11/20 13:07:36;;;;;;;1.80;1.40;;;9.90;99.90;;;;;;5090561;28;20891;-48
2022/11/20 13:10:06;;;;;;;1.20;0.97;;;9.80;99.90;;;;;;5090949;28;20447;-48
2022/11/20 13:12:37;;;;;;;1.97;1.40;;;9.50;99.90;;;;;;5090831;28;20528;-49
2022/11/20 13:15:18;;;;;;;1.97;1.20;;;9.80;99.90;;;;;;5090774;28;20519;-46
2022/11/20 13:17:53;;;;;;;1.97;1.20;;;9.80;99.90;;;;;;5090222;28;20466;-46
2022/11/20 13:20:20;;;;;;;1.77;1.10;;;9.60;99.90;;;;;;5092193;28;20542;-48